createdAt,value
2023-05-19T00:00:37.221Z,11.13
2023-05-19T00:03:00.654Z,10.95
2023-05-19T00:05:25.001Z,10.68
2023-05-19T00:07:50.984Z,12.35
2023-05-19T00:10:14.297Z,10.57
2023-05-19T00:12:37.652Z,10.63
2023-05-19T00:15:00.470Z,11.85
2023-05-19T00:17:23.600Z,9.75
2023-05-19T00:19:46.767Z,8.18
2023-05-19T00:22:09.464Z,9.20
2023-05-19T00:24:32.302Z,9.45
2023-05-19T00:26:55.010Z,9.80
2023-05-19T00:29:19.154Z,9.60
2023-05-19T00:31:42.299Z,8.55
2023-05-19T00:34:05.339Z,8.02
2023-05-19T00:36:28.009Z,7.15
2023-05-19T00:38:52.019Z,8.68
2023-05-19T00:41:14.847Z,6.70
2023-05-19T00:43:37.413Z,9.40
2023-05-19T00:46:00.651Z,7.07
2023-05-19T00:48:26.431Z,8.32
2023-05-19T00:50:51.048Z,5.97
2023-05-19T00:53:14.739Z,7.03
2023-05-19T00:55:40.509Z,6.30
2023-05-19T00:58:06.021Z,6.55
2023-05-19T01:00:30.535Z,6.28
2023-05-19T01:02:54.338Z,5.85
2023-05-19T01:05:17.551Z,9.10
2023-05-19T01:07:41.726Z,7.47
2023-05-19T01:10:04.860Z,6.25
2023-05-19T01:12:27.755Z,6.28
2023-05-19T01:14:50.889Z,6.03
2023-05-19T01:17:29.487Z,5.80
2023-05-19T01:20:05.690Z,6.38
2023-05-19T01:22:55.024Z,6.28
2023-05-19T01:25:45.757Z,7.78
2023-05-19T01:28:42.657Z,6.85
2023-05-19T01:31:07.523Z,7.38
2023-05-19T01:33:32.040Z,6.10
2023-05-19T01:35:56.063Z,6.57
2023-05-19T01:38:21.158Z,6.10
2023-05-19T01:40:44.978Z,6.20
2023-05-19T01:43:11.917Z,5.80
2023-05-19T01:45:35.603Z,5.53
2023-05-19T01:48:02.533Z,7.20
2023-05-19T01:50:25.389Z,10.02
2023-05-19T01:52:47.979Z,5.88
2023-05-19T01:55:10.935Z,6.45
2023-05-19T01:57:53.606Z,5.55
2023-05-19T02:00:42.756Z,5.07
2023-05-19T02:03:08.142Z,7.30
2023-05-19T02:06:07.448Z,7.07
2023-05-19T02:08:47.481Z,7.10
2023-05-19T02:11:31.222Z,5.70
2023-05-19T02:13:57.174Z,5.68
2023-05-19T02:16:22.922Z,4.82
2023-05-19T02:18:46.329Z,6.88
2023-05-19T02:21:13.223Z,6.43
2023-05-19T02:23:35.988Z,6.60
2023-05-19T02:25:58.625Z,6.97
2023-05-19T02:28:21.619Z,6.30
2023-05-19T02:30:44.303Z,6.00
2023-05-19T02:33:07.610Z,6.60
2023-05-19T02:35:31.548Z,7.95
2023-05-19T02:37:54.230Z,5.97
2023-05-19T02:40:18.035Z,6.13
2023-05-19T02:42:40.767Z,6.20
2023-05-19T02:45:03.935Z,6.03
2023-05-19T02:47:26.746Z,5.85
2023-05-19T02:49:49.528Z,5.90
2023-05-19T02:52:12.370Z,7.00
2023-05-19T02:54:35.759Z,7.07
2023-05-19T02:56:59.156Z,7.07
2023-05-19T02:59:25.404Z,8.02
2023-05-19T03:01:48.805Z,8.18
2023-05-19T03:04:11.492Z,6.13
2023-05-19T03:06:34.408Z,8.05
2023-05-19T03:08:57.018Z,7.78
2023-05-19T03:11:19.717Z,6.35
2023-05-19T03:13:42.432Z,6.93
2023-05-19T03:16:05.260Z,11.13
2023-05-19T03:18:28.062Z,8.10
2023-05-19T03:20:51.139Z,9.10
2023-05-19T03:23:13.746Z,11.40
2023-05-19T03:25:36.809Z,7.10
2023-05-19T03:28:00.167Z,8.25
2023-05-19T03:30:23.227Z,7.93
2023-05-19T03:33:01.786Z,7.47
2023-05-19T03:35:24.754Z,8.45
2023-05-19T03:37:47.353Z,8.07
2023-05-19T03:40:10.672Z,6.72
2023-05-19T03:42:35.942Z,6.90
2023-05-19T03:44:58.654Z,6.13
2023-05-19T03:47:21.507Z,7.30
2023-05-19T03:49:59.952Z,7.75
2023-05-19T03:52:46.695Z,7.28
2023-05-19T03:55:20.329Z,6.35
2023-05-19T03:57:44.440Z,6.70
2023-05-19T04:00:09.184Z,7.72
2023-05-19T04:02:34.990Z,8.20
2023-05-19T04:04:57.855Z,9.57
2023-05-19T04:07:20.774Z,9.63
2023-05-19T04:09:43.419Z,8.07
2023-05-19T04:12:06.561Z,8.10
2023-05-19T04:14:30.186Z,7.63
2023-05-19T04:16:54.059Z,8.50
2023-05-19T04:19:16.746Z,8.20
2023-05-19T04:21:39.370Z,6.68
2023-05-19T04:24:02.661Z,8.57
2023-05-19T04:26:26.493Z,7.07
2023-05-19T04:28:49.178Z,8.45
2023-05-19T04:31:12.952Z,8.25
2023-05-19T04:33:36.226Z,10.52
2023-05-19T04:35:59.307Z,8.38
2023-05-19T04:38:22.265Z,6.35
2023-05-19T04:40:45.648Z,8.02
2023-05-19T04:43:09.567Z,9.88
2023-05-19T04:45:33.390Z,6.43
2023-05-19T04:47:58.678Z,7.78
2023-05-19T04:50:21.874Z,8.00
2023-05-19T04:52:45.771Z,7.80
2023-05-19T04:55:11.443Z,7.95
2023-05-19T04:57:34.634Z,7.82
2023-05-19T05:00:00.297Z,8.30
2023-05-19T05:02:29.162Z,8.38
2023-05-19T05:04:54.593Z,7.90
2023-05-19T05:07:17.311Z,8.18
2023-05-19T05:09:40.589Z,7.72
2023-05-19T05:12:03.873Z,7.25
2023-05-19T05:14:27.219Z,9.32
2023-05-19T05:16:50.352Z,8.05
2023-05-19T05:19:18.009Z,7.57
2023-05-19T05:21:41.564Z,8.32
2023-05-19T05:24:05.439Z,8.95
2023-05-19T05:26:33.339Z,8.85
2023-05-19T05:28:56.739Z,9.30
2023-05-19T05:31:20.058Z,7.57
2023-05-19T05:33:43.609Z,8.43
2023-05-19T05:36:06.760Z,8.32
2023-05-19T05:38:29.939Z,13.15
2023-05-19T05:40:52.871Z,9.23
2023-05-19T05:43:15.673Z,9.50
2023-05-19T05:45:44.459Z,7.90
2023-05-19T05:48:07.833Z,10.55
2023-05-19T05:50:31.020Z,7.78
2023-05-19T05:52:56.034Z,12.30
2023-05-19T05:55:20.453Z,8.73
2023-05-19T05:57:43.919Z,12.15
2023-05-19T06:00:10.752Z,10.45
2023-05-19T06:02:38.201Z,10.15
2023-05-19T06:05:02.679Z,8.88
2023-05-19T06:07:25.999Z,9.55
2023-05-19T06:09:48.887Z,9.60
2023-05-19T06:12:11.858Z,9.75
2023-05-19T06:14:40.373Z,11.20
2023-05-19T06:17:15.177Z,8.60
2023-05-19T06:19:38.140Z,8.30
2023-05-19T06:22:01.020Z,12.07
2023-05-19T06:24:25.360Z,8.75
2023-05-19T06:26:48.437Z,8.90
2023-05-19T06:29:12.962Z,7.85
2023-05-19T06:31:36.227Z,8.32
2023-05-19T06:34:05.804Z,9.27
2023-05-19T06:36:28.482Z,8.57
2023-05-19T06:38:53.154Z,8.35
2023-05-19T06:41:16.373Z,8.95
2023-05-19T06:43:39.141Z,7.50
2023-05-19T06:46:02.123Z,8.80
2023-05-19T06:48:27.143Z,7.50
2023-05-19T06:50:51.018Z,9.05
2023-05-19T06:53:14.874Z,9.82
2023-05-19T06:55:47.219Z,9.60
2023-05-19T06:58:21.961Z,9.02
2023-05-19T07:00:45.040Z,7.68
2023-05-19T07:03:11.504Z,8.73
2023-05-19T07:05:34.834Z,8.90
2023-05-19T07:07:57.717Z,9.82
2023-05-19T07:10:23.446Z,7.07
2023-05-19T07:12:46.690Z,8.40
2023-05-19T07:15:11.332Z,8.00
2023-05-19T07:17:34.236Z,9.38
2023-05-19T07:19:56.936Z,8.70
2023-05-19T07:22:19.692Z,8.82
2023-05-19T07:24:45.488Z,9.70
2023-05-19T07:27:08.338Z,9.27
2023-05-19T07:29:31.284Z,9.55
2023-05-19T07:31:57.882Z,9.07
2023-05-19T07:34:22.076Z,8.65
2023-05-19T07:36:44.860Z,9.40
2023-05-19T07:39:48.573Z,10.85
2023-05-19T07:42:11.386Z,9.40
2023-05-19T07:44:34.796Z,7.90
2023-05-19T07:46:57.778Z,9.13
2023-05-19T07:49:20.690Z,9.15
2023-05-19T07:51:43.680Z,10.88
2023-05-19T07:54:08.514Z,8.82
2023-05-19T07:56:31.197Z,7.80
2023-05-19T07:58:54.081Z,7.00
2023-05-19T08:01:16.864Z,10.65
2023-05-19T08:03:39.614Z,7.07
2023-05-19T08:06:02.670Z,8.13
2023-05-19T08:08:25.444Z,11.25
2023-05-19T08:10:48.189Z,8.90
2023-05-19T08:13:10.903Z,8.40
2023-05-19T08:15:35.955Z,7.95
2023-05-19T08:17:58.614Z,10.23
2023-05-19T08:20:22.844Z,10.13
2023-05-19T08:22:45.646Z,9.63
2023-05-19T08:25:09.645Z,13.35
2023-05-19T08:27:32.759Z,10.32
2023-05-19T08:29:56.071Z,8.32
2023-05-19T08:32:18.825Z,10.20
2023-05-19T08:34:41.654Z,9.70
2023-05-19T08:37:04.607Z,8.70
2023-05-19T08:39:27.682Z,10.82
2023-05-19T08:41:50.431Z,10.70
2023-05-19T08:44:13.289Z,8.70
2023-05-19T08:46:36.285Z,9.57
2023-05-19T08:49:04.936Z,9.00
2023-05-19T08:51:36.142Z,8.88
2023-05-19T08:54:25.764Z,9.90
2023-05-19T08:56:48.734Z,10.00
2023-05-19T08:59:14.296Z,9.57
2023-05-19T09:01:40.073Z,11.80
2023-05-19T09:04:04.167Z,8.77
2023-05-19T09:06:27.610Z,8.95
2023-05-19T09:08:50.336Z,8.27
2023-05-19T09:11:13.155Z,9.90
2023-05-19T09:13:36.107Z,7.95
2023-05-19T09:15:59.904Z,8.40
2023-05-19T09:18:26.455Z,9.13
2023-05-19T09:20:49.199Z,9.98
2023-05-19T09:23:16.448Z,7.20
2023-05-19T09:25:53.626Z,8.32
2023-05-19T09:28:38.013Z,9.13
2023-05-19T09:31:11.331Z,9.57
2023-05-19T09:33:38.581Z,8.10
2023-05-19T09:36:02.066Z,7.07
2023-05-19T09:38:27.157Z,8.45
2023-05-19T09:40:50.081Z,9.88
2023-05-19T09:43:12.871Z,7.45
2023-05-19T09:45:35.480Z,8.32
2023-05-19T09:48:04.760Z,9.05
2023-05-19T09:50:30.176Z,10.35
2023-05-19T09:53:15.285Z,11.30
2023-05-19T09:55:38.374Z,10.10
2023-05-19T09:58:06.236Z,7.78
2023-05-19T10:00:31.509Z,13.02
2023-05-19T10:02:55.998Z,7.75
2023-05-19T10:05:20.582Z,7.22
2023-05-19T10:07:50.269Z,7.63
2023-05-19T10:10:14.134Z,8.50
2023-05-19T10:12:39.402Z,6.82
2023-05-19T10:15:03.088Z,7.65
2023-05-19T10:17:26.443Z,7.20
2023-05-19T10:19:52.398Z,7.07
2023-05-19T10:22:15.089Z,8.50
2023-05-19T10:24:37.947Z,7.45
2023-05-19T10:27:10.662Z,7.97
2023-05-19T10:29:37.023Z,7.68
2023-05-19T10:32:04.978Z,7.00
2023-05-19T10:34:27.928Z,9.82
2023-05-19T10:37:12.213Z,8.68
2023-05-19T10:39:36.253Z,11.43
2023-05-19T10:42:17.293Z,8.43
2023-05-19T10:44:43.052Z,7.43
2023-05-19T10:47:11.336Z,6.90
2023-05-19T10:49:37.501Z,9.07
2023-05-19T10:52:00.253Z,8.27
2023-05-19T10:54:43.626Z,6.97
2023-05-19T10:57:07.159Z,7.43
2023-05-19T10:59:35.665Z,9.00
2023-05-19T11:02:09.052Z,11.13
2023-05-19T11:05:07.749Z,8.88
2023-05-19T11:07:30.991Z,8.10
2023-05-19T11:09:54.172Z,9.10
2023-05-19T11:12:25.227Z,9.30
2023-05-19T11:14:48.877Z,11.35
2023-05-19T11:17:15.953Z,8.75
2023-05-19T11:19:38.830Z,8.68
2023-05-19T11:22:13.185Z,10.38
2023-05-19T11:24:37.518Z,8.02
2023-05-19T11:27:00.380Z,8.43
2023-05-19T11:29:23.579Z,10.38
2023-05-19T11:31:46.360Z,10.07
2023-05-19T11:34:09.503Z,9.57
2023-05-19T11:36:33.260Z,9.40
2023-05-19T11:38:57.303Z,11.25
2023-05-19T11:41:20.845Z,11.43
2023-05-19T11:43:43.765Z,10.38
2023-05-19T11:46:06.861Z,10.02
2023-05-19T11:48:30.141Z,13.15
2023-05-19T11:50:53.289Z,10.55
2023-05-19T11:53:19.935Z,11.73
2023-05-19T11:55:47.360Z,10.60
2023-05-19T11:58:11.214Z,14.45
2023-05-19T12:00:39.667Z,11.13
2023-05-19T12:03:03.078Z,10.45
2023-05-19T12:05:27.246Z,12.60
2023-05-19T12:07:51.509Z,11.98
2023-05-19T12:10:15.249Z,13.43
2023-05-19T12:12:38.046Z,13.32
2023-05-19T12:15:04.169Z,11.63
2023-05-19T12:17:28.153Z,12.18
2023-05-19T12:19:51.353Z,13.40
2023-05-19T12:22:15.365Z,11.80
2023-05-19T12:24:38.937Z,14.13
2023-05-19T12:27:23.313Z,10.00
2023-05-19T12:29:53.534Z,9.75
2023-05-19T12:32:16.286Z,11.93
2023-05-19T12:34:39.530Z,11.07
2023-05-19T12:37:02.779Z,11.73
2023-05-19T12:39:25.631Z,12.25
2023-05-19T12:41:48.408Z,12.98
2023-05-19T12:44:16.247Z,11.68
2023-05-19T12:46:40.638Z,11.95
2023-05-19T12:49:03.768Z,12.40
2023-05-19T12:51:26.523Z,10.60
2023-05-19T12:53:50.504Z,11.98
2023-05-19T12:56:15.174Z,12.68
2023-05-19T12:58:38.957Z,9.93
2023-05-19T13:01:01.680Z,9.43
2023-05-19T13:03:24.603Z,10.43
2023-05-19T13:05:49.414Z,7.63
2023-05-19T13:08:21.912Z,9.32
2023-05-19T13:10:45.935Z,9.52
2023-05-19T13:13:09.480Z,7.60
2023-05-19T13:15:36.553Z,8.18
2023-05-19T13:18:01.173Z,7.78
2023-05-19T13:20:26.331Z,8.70
2023-05-19T13:22:50.893Z,9.20
2023-05-19T13:25:13.896Z,8.25
2023-05-19T13:27:37.228Z,8.70
2023-05-19T13:29:59.965Z,9.60
2023-05-19T13:32:22.684Z,8.15
2023-05-19T13:34:45.457Z,8.93
2023-05-19T13:37:12.003Z,8.80
2023-05-19T13:39:34.710Z,9.32
2023-05-19T13:41:58.560Z,10.50
2023-05-19T13:44:21.295Z,7.35
2023-05-19T13:46:46.079Z,7.72
2023-05-19T13:49:10.162Z,7.85
2023-05-19T13:51:32.787Z,8.90
2023-05-19T13:53:55.498Z,8.52
2023-05-19T13:56:18.163Z,6.30
2023-05-19T13:58:40.813Z,7.57
2023-05-19T14:01:03.648Z,7.30
2023-05-19T14:03:27.126Z,8.65
2023-05-19T14:05:49.850Z,6.47
2023-05-19T14:08:12.584Z,6.80
2023-05-19T14:10:35.513Z,6.35
2023-05-19T14:15:26.839Z,7.30
2023-05-19T14:17:49.637Z,8.63
2023-05-19T14:20:12.574Z,10.10
2023-05-19T14:22:35.317Z,6.78
2023-05-19T14:24:58.222Z,6.50
2023-05-19T14:27:20.961Z,7.97
2023-05-19T14:29:43.761Z,6.05
2023-05-19T14:32:07.170Z,12.63
2023-05-19T14:34:29.771Z,7.80
2023-05-19T14:36:52.466Z,6.88
2023-05-19T14:39:15.269Z,6.38
2023-05-19T14:41:38.058Z,6.70
2023-05-19T14:44:00.801Z,6.55
2023-05-19T14:46:23.584Z,7.35
2023-05-19T14:48:46.415Z,5.78
2023-05-19T14:51:09.117Z,7.43
2023-05-19T14:53:31.812Z,8.65
2023-05-19T14:55:54.426Z,6.72
2023-05-19T14:58:28.278Z,6.05
2023-05-19T15:00:52.058Z,8.15
2023-05-19T15:03:14.979Z,6.43
2023-05-19T15:05:40.219Z,14.00
2023-05-19T15:08:06.015Z,6.65
2023-05-19T15:10:29.065Z,7.40
2023-05-19T15:12:51.705Z,7.28
2023-05-19T15:15:16.138Z,7.80
2023-05-19T15:17:38.965Z,5.85
2023-05-19T15:20:01.809Z,5.85
2023-05-19T15:22:25.543Z,6.65
2023-05-19T15:24:48.259Z,8.85
2023-05-19T15:27:10.942Z,6.93
2023-05-19T15:29:33.662Z,7.93
2023-05-19T15:31:57.173Z,7.07
2023-05-19T15:34:20.947Z,6.72
2023-05-19T15:36:43.609Z,6.95
2023-05-19T15:39:06.696Z,7.00
2023-05-19T15:41:29.439Z,7.22
2023-05-19T15:43:53.404Z,7.75
2023-05-19T15:46:16.307Z,6.00
2023-05-19T15:48:39.446Z,6.63
2023-05-19T15:51:02.359Z,5.57
2023-05-19T15:53:25.903Z,5.70
2023-05-19T15:55:48.561Z,6.20
2023-05-19T15:58:11.256Z,7.72
2023-05-19T16:00:34.197Z,8.07
2023-05-19T16:02:57.064Z,5.53
2023-05-19T16:05:19.922Z,6.13
2023-05-19T16:07:42.665Z,5.88
2023-05-19T16:10:05.887Z,6.82
2023-05-19T16:12:29.611Z,5.82
2023-05-19T16:14:52.257Z,5.90
2023-05-19T16:17:15.319Z,7.50
2023-05-19T16:19:38.427Z,5.55
2023-05-19T16:22:01.053Z,6.70
2023-05-19T16:24:24.139Z,7.07
2023-05-19T16:26:48.701Z,5.75
2023-05-19T16:29:11.347Z,6.13
2023-05-19T16:31:34.031Z,5.10
2023-05-19T16:33:56.801Z,5.80
2023-05-19T16:36:22.199Z,11.82
2023-05-19T16:38:45.163Z,6.43
2023-05-19T16:41:11.444Z,9.57
2023-05-19T16:43:34.238Z,8.65
2023-05-19T16:45:57.200Z,7.97
2023-05-19T16:48:20.408Z,7.47
2023-05-19T16:50:43.426Z,8.02
2023-05-19T16:53:06.046Z,8.68
2023-05-19T16:55:28.766Z,7.05
2023-05-19T16:57:51.405Z,6.95
2023-05-19T17:00:15.074Z,7.70
2023-05-19T17:02:38.517Z,7.82
2023-05-19T17:05:01.239Z,6.68
2023-05-19T17:07:23.923Z,6.18
2023-05-19T17:09:46.647Z,7.75
2023-05-19T17:12:09.577Z,7.45
2023-05-19T17:14:32.293Z,7.00
2023-05-19T17:16:54.989Z,8.80
2023-05-19T17:19:17.833Z,7.90
2023-05-19T17:21:40.911Z,7.97
2023-05-19T17:24:03.951Z,7.25
2023-05-19T17:26:26.804Z,6.55
2023-05-19T17:28:49.654Z,7.32
2023-05-19T17:31:12.916Z,6.68
2023-05-19T17:33:35.667Z,9.90
2023-05-19T17:35:58.374Z,6.97
2023-05-19T17:38:20.982Z,7.68
2023-05-19T17:40:43.597Z,7.80
2023-05-19T17:43:06.370Z,6.63
2023-05-19T17:45:29.014Z,7.18
2023-05-19T17:47:51.683Z,7.85
2023-05-19T17:50:14.378Z,8.75
2023-05-19T17:52:39.213Z,7.60
2023-05-19T17:55:02.028Z,7.88
2023-05-19T17:57:26.556Z,7.45
2023-05-19T17:59:49.543Z,7.72
2023-05-19T18:02:12.478Z,6.85
2023-05-19T18:04:35.656Z,8.65
2023-05-19T18:06:59.285Z,6.82
2023-05-19T18:09:23.439Z,8.30
2023-05-19T18:11:46.107Z,8.45
2023-05-19T18:14:08.817Z,9.25
2023-05-19T18:16:31.604Z,9.10
2023-05-19T18:18:54.315Z,10.65
2023-05-19T18:21:58.251Z,8.13
2023-05-19T18:24:21.380Z,7.97
2023-05-19T18:26:44.383Z,9.15
2023-05-19T18:29:09.080Z,8.90
2023-05-19T18:31:31.862Z,7.40
2023-05-19T18:33:54.680Z,11.40
2023-05-19T18:36:17.802Z,9.20
2023-05-19T18:38:41.318Z,7.93
2023-05-19T18:41:06.814Z,9.13
2023-05-19T18:43:30.266Z,9.48
2023-05-19T18:45:53.046Z,11.35
2023-05-19T18:48:16.294Z,9.73
2023-05-19T18:50:39.241Z,10.75
2023-05-19T18:53:01.982Z,12.68
2023-05-19T18:55:24.655Z,11.13
2023-05-19T18:57:47.358Z,11.55
2023-05-19T19:00:10.602Z,11.32
2023-05-19T19:02:33.517Z,10.25
2023-05-19T19:04:56.337Z,10.88
2023-05-19T19:07:19.195Z,12.90
2023-05-19T19:09:43.897Z,9.65
2023-05-19T19:12:06.880Z,10.85
2023-05-19T19:14:29.517Z,12.30
2023-05-19T19:16:52.261Z,12.48
2023-05-19T19:19:15.163Z,11.18
2023-05-19T19:21:37.950Z,10.35
2023-05-19T19:24:02.126Z,11.52
2023-05-19T19:26:27.144Z,11.20
2023-05-19T19:28:49.995Z,10.32
2023-05-19T19:31:12.696Z,10.13
2023-05-19T19:33:35.687Z,13.35
2023-05-19T19:35:58.370Z,11.55
2023-05-19T19:38:21.273Z,12.30
2023-05-19T19:40:43.987Z,12.43
2023-05-19T19:43:06.674Z,11.93
2023-05-19T19:45:29.434Z,13.05
2023-05-19T19:47:52.163Z,12.98
2023-05-19T19:50:15.823Z,17.50
2023-05-19T19:52:38.623Z,15.73
2023-05-19T19:55:01.375Z,14.85
2023-05-19T19:57:24.710Z,14.82
2023-05-19T19:59:47.397Z,17.40
2023-05-19T20:02:10.318Z,14.07
2023-05-19T20:04:33.319Z,18.88
2023-05-19T20:06:56.223Z,22.40
2023-05-19T20:09:18.891Z,37.47
2023-05-19T20:11:41.840Z,44.60
2023-05-19T20:14:04.622Z,49.28
2023-05-19T20:16:27.547Z,41.78
2023-05-19T20:18:50.765Z,39.88
2023-05-19T20:21:13.467Z,33.30
2023-05-19T20:23:38.815Z,22.45
2023-05-19T20:26:11.800Z,19.10
2023-05-19T20:28:36.048Z,18.33
2023-05-19T20:30:58.703Z,19.40
2023-05-19T20:33:21.411Z,18.80
2023-05-19T20:35:44.017Z,18.90
2023-05-19T20:38:06.669Z,24.13
2023-05-19T20:40:29.816Z,24.65
2023-05-19T20:42:52.529Z,21.05
2023-05-19T20:45:15.192Z,23.98
2023-05-19T20:47:38.312Z,22.92
2023-05-19T20:50:01.145Z,21.20
2023-05-19T20:52:23.911Z,21.45
2023-05-19T20:54:46.643Z,21.55
2023-05-19T20:57:09.554Z,22.23
2023-05-19T20:59:41.051Z,22.60
2023-05-19T21:02:04.490Z,25.20
2023-05-19T21:04:27.284Z,21.90
2023-05-19T21:06:50.148Z,22.27
2023-05-19T21:09:14.732Z,20.45
2023-05-19T21:11:37.545Z,21.70
2023-05-19T21:14:04.253Z,22.50
2023-05-19T21:16:27.359Z,21.98
2023-05-19T21:18:50.064Z,18.20
2023-05-19T21:21:12.892Z,19.88
2023-05-19T21:23:35.575Z,19.80
2023-05-19T21:25:59.691Z,18.92
2023-05-19T21:28:22.488Z,20.95
2023-05-19T21:30:49.437Z,20.02
2023-05-19T21:33:12.358Z,18.25
2023-05-19T21:35:35.057Z,18.65
2023-05-19T21:37:58.256Z,20.15
2023-05-19T21:40:22.233Z,18.02
2023-05-19T21:42:44.848Z,16.27
2023-05-19T21:45:07.933Z,17.08
2023-05-19T21:47:30.814Z,16.45
2023-05-19T21:49:53.563Z,19.02
2023-05-19T21:52:16.209Z,21.17
2023-05-19T21:54:38.884Z,19.90
2023-05-19T21:57:02.389Z,17.63
2023-05-19T21:59:26.390Z,18.50
2023-05-19T22:01:49.029Z,17.52
2023-05-19T22:04:12.059Z,19.88
2023-05-19T22:06:34.925Z,18.40
2023-05-19T22:09:00.709Z,18.30
2023-05-19T22:11:23.836Z,19.55
2023-05-19T22:13:46.808Z,19.60
2023-05-19T22:16:09.887Z,16.13
2023-05-19T22:18:32.896Z,17.98
2023-05-19T22:20:55.561Z,19.27
2023-05-19T22:23:18.295Z,17.85
2023-05-19T22:25:40.941Z,15.27
2023-05-19T22:28:05.674Z,20.48
2023-05-19T22:30:28.471Z,15.93
2023-05-19T22:32:51.256Z,16.13
2023-05-19T22:35:14.322Z,19.00
2023-05-19T22:37:36.979Z,17.40
2023-05-19T22:39:59.714Z,16.50
2023-05-19T22:42:22.800Z,16.85
2023-05-19T22:44:46.016Z,16.48
2023-05-19T22:47:13.448Z,16.75
2023-05-19T22:49:36.274Z,15.35
2023-05-19T22:51:58.967Z,16.25
2023-05-19T22:54:21.988Z,14.68
2023-05-19T22:56:46.455Z,15.15
2023-05-19T22:59:09.234Z,14.90
2023-05-19T23:01:31.949Z,15.73
2023-05-19T23:03:54.697Z,13.63
2023-05-19T23:06:17.871Z,13.18
2023-05-19T23:08:40.732Z,14.25
2023-05-19T23:11:03.401Z,13.75
2023-05-19T23:13:26.116Z,16.58
2023-05-19T23:15:48.949Z,13.43
2023-05-19T23:18:11.685Z,16.35
2023-05-19T23:20:35.095Z,12.32
2023-05-19T23:22:57.739Z,13.00
2023-05-19T23:25:20.492Z,13.15
2023-05-19T23:27:43.134Z,14.25
2023-05-19T23:30:06.680Z,13.02
2023-05-19T23:32:29.362Z,12.57
2023-05-19T23:34:52.086Z,12.63
2023-05-19T23:37:14.810Z,13.93
2023-05-19T23:39:38.319Z,11.63
2023-05-19T23:42:01.004Z,13.48
2023-05-19T23:44:23.680Z,13.32
2023-05-19T23:46:46.560Z,12.82
2023-05-19T23:49:09.258Z,11.93
2023-05-19T23:51:31.987Z,13.88
2023-05-19T23:53:55.925Z,10.80
2023-05-19T23:56:18.559Z,12.35
2023-05-19T23:58:41.413Z,18.08
